createdAt,value
2018-07-07T00:01:13.191Z,73.49
2018-07-07T00:03:41.910Z,73.74
2018-07-07T00:06:10.438Z,73.61
2018-07-07T00:08:39.006Z,73.71
2018-07-07T00:11:07.714Z,73.74
2018-07-07T00:13:36.290Z,73.82
2018-07-07T00:16:04.839Z,73.51
2018-07-07T00:18:33.327Z,74.15
2018-07-07T00:21:01.991Z,74.37
2018-07-07T00:23:30.617Z,74.04
2018-07-07T00:25:59.359Z,73.86
2018-07-07T00:28:28.005Z,73.65
2018-07-07T00:30:56.529Z,74.38
2018-07-07T00:33:25.209Z,74.36
2018-07-07T00:35:53.707Z,74.47
2018-07-07T00:38:22.395Z,74.72
2018-07-07T00:40:50.995Z,74.52
2018-07-07T00:43:19.562Z,74.56
2018-07-07T00:45:48.179Z,75.15
2018-07-07T00:48:16.811Z,74.64
2018-07-07T00:50:45.561Z,74.96
2018-07-07T00:53:14.180Z,75.20
2018-07-07T00:55:42.867Z,74.29
2018-07-07T00:58:11.555Z,75.06
2018-07-07T01:00:49.168Z,75.53
2018-07-07T01:03:17.935Z,75.64
2018-07-07T01:05:47.798Z,76.85
2018-07-07T01:08:17.219Z,76.07
2018-07-07T01:10:46.041Z,74.31
2018-07-07T01:13:15.278Z,76.00
2018-07-07T01:15:43.918Z,76.58
2018-07-07T01:18:12.604Z,76.39
2018-07-07T01:20:41.291Z,76.29
2018-07-07T01:23:09.975Z,75.89
2018-07-07T01:25:38.661Z,75.96
2018-07-07T01:28:07.518Z,76.76
2018-07-07T01:30:36.092Z,76.32
2018-07-07T01:33:04.666Z,76.32
2018-07-07T01:35:33.303Z,77.32
2018-07-07T01:38:01.881Z,76.70
2018-07-07T01:40:30.495Z,77.64
2018-07-07T01:42:59.052Z,77.73
2018-07-07T01:45:27.646Z,77.60
2018-07-07T01:47:56.315Z,77.44
2018-07-07T01:50:25.274Z,79.81
2018-07-07T01:52:53.838Z,78.87
2018-07-07T01:55:22.435Z,79.01
2018-07-07T01:57:51.011Z,79.91
2018-07-07T02:00:19.554Z,79.80
2018-07-07T02:02:48.196Z,79.16
2018-07-07T02:05:16.913Z,78.92
2018-07-07T02:07:45.491Z,78.35
2018-07-07T02:10:14.016Z,78.42
2018-07-07T02:12:42.587Z,78.56
2018-07-07T02:15:11.182Z,80.67
2018-07-07T02:17:40.515Z,79.78
2018-07-07T02:20:09.225Z,78.92
2018-07-07T02:22:38.627Z,79.01
2018-07-07T02:25:07.315Z,78.57
2018-07-07T02:27:35.998Z,78.45
2018-07-07T02:30:04.989Z,79.64
2018-07-07T02:32:33.675Z,79.22
2018-07-07T02:35:02.361Z,79.13
2018-07-07T02:37:30.944Z,78.94
2018-07-07T02:39:59.639Z,79.07
2018-07-07T02:42:28.259Z,78.60
2018-07-07T02:44:56.898Z,78.75
2018-07-07T02:47:25.583Z,78.73
2018-07-07T02:49:54.107Z,78.17
2018-07-07T02:52:22.748Z,78.48
2018-07-07T02:54:51.438Z,78.36
2018-07-07T02:57:20.222Z,77.93
2018-07-07T02:59:48.906Z,78.53
2018-07-07T03:02:17.592Z,78.71
2018-07-07T03:04:46.195Z,78.79
2018-07-07T03:07:14.697Z,79.52
2018-07-07T03:09:43.286Z,78.89
2018-07-07T03:12:11.926Z,79.21
2018-07-07T03:14:40.609Z,79.10
2018-07-07T03:17:09.103Z,79.55
2018-07-07T03:19:37.678Z,79.58
2018-07-07T03:22:06.736Z,80.05
2018-07-07T03:24:35.271Z,80.16
2018-07-07T03:27:03.876Z,80.00
2018-07-07T03:29:32.477Z,79.96
2018-07-07T03:32:01.202Z,79.98
2018-07-07T03:34:29.886Z,80.10
2018-07-07T03:36:58.584Z,79.97
2018-07-07T03:39:27.309Z,79.97
2018-07-07T03:41:55.941Z,79.79
2018-07-07T03:44:24.487Z,81.09
2018-07-07T03:46:53.107Z,82.64
2018-07-07T03:49:21.742Z,81.80
2018-07-07T03:51:50.191Z,82.29
2018-07-07T03:54:18.754Z,82.39
2018-07-07T03:56:47.420Z,82.17
2018-07-07T03:59:16.019Z,81.74
2018-07-07T04:01:44.560Z,81.79
2018-07-07T04:04:13.700Z,82.63
2018-07-07T04:06:42.384Z,81.78
2018-07-07T04:09:11.071Z,81.67
2018-07-07T04:11:39.719Z,81.21
2018-07-07T04:14:08.343Z,80.93
2018-07-07T04:16:36.870Z,81.46
2018-07-07T04:19:05.505Z,81.42
2018-07-07T04:21:34.090Z,81.72
2018-07-07T04:24:02.703Z,81.17
2018-07-07T04:26:31.371Z,80.96
2018-07-07T04:29:00.467Z,82.14
2018-07-07T04:31:29.775Z,81.40
2018-07-07T04:33:58.386Z,81.66
2018-07-07T04:36:27.019Z,82.29
2018-07-07T04:38:55.584Z,81.72
2018-07-07T04:41:24.082Z,81.03
2018-07-07T04:43:52.706Z,80.37
2018-07-07T04:46:21.283Z,81.17
2018-07-07T04:48:49.938Z,80.20
2018-07-07T04:51:18.546Z,80.00
2018-07-07T04:53:47.111Z,80.21
2018-07-07T04:56:15.719Z,79.37
2018-07-07T04:58:44.212Z,78.61
2018-07-07T05:01:12.847Z,77.76
2018-07-07T05:03:41.907Z,77.42
2018-07-07T05:06:11.139Z,76.95
2018-07-07T05:08:39.825Z,76.27
2018-07-07T05:11:08.574Z,75.71
2018-07-07T05:13:37.219Z,75.58
2018-07-07T05:16:05.983Z,75.31
2018-07-07T05:18:34.772Z,74.95
2018-07-07T05:21:04.167Z,74.61
2018-07-07T05:23:32.687Z,74.22
2018-07-07T05:26:01.337Z,73.31
2018-07-07T05:28:30.126Z,73.04
2018-07-07T05:30:58.722Z,72.56
2018-07-07T05:33:27.496Z,72.37
2018-07-07T05:35:56.144Z,72.05
2018-07-07T05:38:24.718Z,71.79
2018-07-07T05:40:53.656Z,71.62
2018-07-07T05:43:22.187Z,71.20
2018-07-07T05:45:50.823Z,71.45
2018-07-07T05:48:19.448Z,71.07
2018-07-07T05:50:48.036Z,70.45
2018-07-07T05:53:16.670Z,69.75
2018-07-07T05:55:45.274Z,69.81
2018-07-07T05:58:13.897Z,69.65
2018-07-07T06:00:42.497Z,69.57
2018-07-07T06:03:11.105Z,69.18
2018-07-07T06:05:39.795Z,69.41
2018-07-07T06:08:08.348Z,69.22
2018-07-07T06:10:36.901Z,69.22
2018-07-07T06:13:05.808Z,68.41
2018-07-07T06:15:34.429Z,68.28
2018-07-07T06:18:02.999Z,67.93
2018-07-07T06:20:31.596Z,67.79
2018-07-07T06:23:00.244Z,67.93
2018-07-07T06:25:29.171Z,67.67
2018-07-07T06:27:58.207Z,67.77
2018-07-07T06:30:26.847Z,68.06
2018-07-07T06:32:55.534Z,67.63
2018-07-07T06:35:24.267Z,66.57
2018-07-07T06:37:53.231Z,66.50
2018-07-07T06:40:21.829Z,66.45
2018-07-07T06:42:50.431Z,66.95
2018-07-07T06:45:19.164Z,66.81
2018-07-07T06:47:48.497Z,66.05
2018-07-07T06:50:17.151Z,66.05
2018-07-07T06:52:45.835Z,65.90
2018-07-07T06:55:14.359Z,65.43
2018-07-07T06:57:43.001Z,65.47
2018-07-07T07:00:11.686Z,65.61
2018-07-07T07:02:40.209Z,64.61
2018-07-07T07:05:08.814Z,65.12
2018-07-07T07:07:37.328Z,64.44
2018-07-07T07:10:05.862Z,64.44
2018-07-07T07:12:34.442Z,64.57
2018-07-07T07:15:03.082Z,64.31
2018-07-07T07:17:31.664Z,64.27
2018-07-07T07:20:00.205Z,64.03
2018-07-07T07:22:28.829Z,63.02
2018-07-07T07:24:57.411Z,63.39
2018-07-07T07:27:25.996Z,62.30
2018-07-07T07:29:54.760Z,62.53
2018-07-07T07:32:23.469Z,62.16
2018-07-07T07:34:52.154Z,62.89
2018-07-07T07:37:20.736Z,62.39
2018-07-07T07:39:49.302Z,62.21
2018-07-07T07:42:17.909Z,61.78
2018-07-07T07:44:46.426Z,61.64
2018-07-07T07:47:15.118Z,61.95
2018-07-07T07:49:43.735Z,60.94
2018-07-07T07:52:12.442Z,60.98
2018-07-07T07:54:40.926Z,60.38
2018-07-07T07:57:09.439Z,59.47
2018-07-07T07:59:38.189Z,58.81
2018-07-07T08:02:06.770Z,59.92
2018-07-07T08:04:35.435Z,59.85
2018-07-07T08:07:04.081Z,58.64
2018-07-07T08:09:32.592Z,58.03
2018-07-07T08:12:01.192Z,58.72
2018-07-07T08:14:29.889Z,59.19
2018-07-07T08:16:58.395Z,59.12
2018-07-07T08:19:27.478Z,59.54
2018-07-07T08:21:56.099Z,60.74
2018-07-07T08:24:24.736Z,59.27
2018-07-07T08:26:53.479Z,58.97
2018-07-07T08:29:22.105Z,59.52
2018-07-07T08:31:50.632Z,58.32
2018-07-07T08:34:19.182Z,58.32
2018-07-07T08:36:47.852Z,59.38
2018-07-07T08:39:16.433Z,58.73
2018-07-07T08:41:45.023Z,58.94
2018-07-07T08:44:13.644Z,59.36
2018-07-07T08:46:42.284Z,58.25
2018-07-07T08:49:10.824Z,58.74
2018-07-07T08:51:39.452Z,57.90
2018-07-07T08:54:07.958Z,57.99
2018-07-07T08:56:36.459Z,57.88
2018-07-07T08:59:04.974Z,57.41
2018-07-07T09:01:33.458Z,56.92
2018-07-07T09:04:01.996Z,56.16
2018-07-07T09:06:30.696Z,56.24
2018-07-07T09:08:59.432Z,54.41
2018-07-07T09:11:27.936Z,55.78
2018-07-07T09:13:56.493Z,54.99
2018-07-07T09:16:25.077Z,55.43
2018-07-07T09:18:53.584Z,53.41
2018-07-07T09:21:22.279Z,53.92
2018-07-07T09:23:50.929Z,55.22
2018-07-07T09:26:19.504Z,53.29
2018-07-07T09:28:48.096Z,53.18
2018-07-07T09:31:16.595Z,52.55
2018-07-07T09:33:45.116Z,53.57
2018-07-07T09:36:13.738Z,54.55
2018-07-07T09:38:42.460Z,54.37
2018-07-07T09:41:11.006Z,54.83
2018-07-07T09:43:39.794Z,54.86
2018-07-07T09:46:08.308Z,54.90
2018-07-07T09:48:36.915Z,54.87
2018-07-07T09:51:05.549Z,54.17
2018-07-07T09:53:34.229Z,54.19
2018-07-07T09:56:02.810Z,55.32
2018-07-07T09:58:31.394Z,53.89
2018-07-07T10:01:00.088Z,53.07
2018-07-07T10:03:28.619Z,52.68
2018-07-07T10:05:57.187Z,53.59
2018-07-07T10:08:25.828Z,51.84
2018-07-07T10:10:54.410Z,53.31
2018-07-07T10:13:23.023Z,52.92
2018-07-07T10:15:51.510Z,52.79
2018-07-07T10:18:20.160Z,52.77
2018-07-07T10:20:48.783Z,53.36
2018-07-07T10:23:17.201Z,52.59
2018-07-07T10:25:45.907Z,53.71
2018-07-07T10:28:14.476Z,52.66
2018-07-07T10:30:43.071Z,52.00
2018-07-07T10:33:11.656Z,51.75
2018-07-07T10:35:40.239Z,51.67
2018-07-07T10:38:08.932Z,49.78
2018-07-07T10:40:37.657Z,49.49
2018-07-07T10:43:06.647Z,50.29
2018-07-07T10:45:35.230Z,49.29
2018-07-07T10:48:03.871Z,50.03
2018-07-07T10:50:32.819Z,51.05
2018-07-07T10:53:01.480Z,51.26
2018-07-07T10:55:30.293Z,49.85
2018-07-07T10:57:58.816Z,50.76
2018-07-07T11:00:27.407Z,50.94
2018-07-07T11:02:55.945Z,49.24
2018-07-07T11:05:24.462Z,50.30
2018-07-07T11:07:53.149Z,49.15
2018-07-07T11:10:21.744Z,50.04
2018-07-07T11:12:50.266Z,48.96
2018-07-07T11:15:18.896Z,47.97
2018-07-07T11:17:47.552Z,47.65
2018-07-07T11:20:16.166Z,47.60
2018-07-07T11:22:44.696Z,48.95
2018-07-07T11:25:13.331Z,50.68
2018-07-07T11:27:41.843Z,49.97
2018-07-07T11:30:10.501Z,51.27
2018-07-07T11:32:39.079Z,51.89
2018-07-07T11:35:07.664Z,51.32
2018-07-07T11:37:36.250Z,51.58
2018-07-07T11:40:04.871Z,50.85
2018-07-07T11:42:33.530Z,51.25
2018-07-07T11:45:02.307Z,50.73
2018-07-07T11:47:31.038Z,50.72
2018-07-07T11:49:59.570Z,51.38
2018-07-07T11:52:28.319Z,50.98
2018-07-07T11:54:56.954Z,50.72
2018-07-07T11:57:25.524Z,49.95
2018-07-07T11:59:54.067Z,50.30
2018-07-07T12:02:23.409Z,51.43
2018-07-07T12:04:52.001Z,51.83
2018-07-07T12:07:20.662Z,51.06
2018-07-07T12:09:49.360Z,50.97
2018-07-07T12:12:18.046Z,51.21
2018-07-07T12:14:46.935Z,50.61
2018-07-07T12:17:15.435Z,51.20
2018-07-07T12:19:44.103Z,51.82
2018-07-07T12:22:12.607Z,52.66
2018-07-07T12:24:41.197Z,53.26
2018-07-07T12:27:09.746Z,52.25
2018-07-07T12:29:38.375Z,51.91
2018-07-07T12:32:07.015Z,51.49
2018-07-07T12:34:35.605Z,52.47
2018-07-07T12:37:04.180Z,52.19
2018-07-07T12:39:32.866Z,51.85
2018-07-07T12:42:01.387Z,51.64
2018-07-07T12:44:30.055Z,51.35
2018-07-07T12:46:58.619Z,52.35
2018-07-07T12:49:27.198Z,53.27
2018-07-07T12:51:56.097Z,51.99
2018-07-07T12:54:26.689Z,51.92
2018-07-07T12:56:55.366Z,51.72
2018-07-07T12:59:23.906Z,51.24
2018-07-07T13:01:52.571Z,50.10
2018-07-07T13:04:21.102Z,50.55
2018-07-07T13:06:49.654Z,50.57
2018-07-07T13:09:18.158Z,49.98
2018-07-07T13:11:46.798Z,50.11
2018-07-07T13:14:16.100Z,50.11
2018-07-07T13:16:44.750Z,50.47
2018-07-07T13:19:13.366Z,49.88
2018-07-07T13:21:56.490Z,50.35
2018-07-07T13:24:25.146Z,50.27
2018-07-07T13:26:53.655Z,50.22
2018-07-07T13:29:22.287Z,50.79
2018-07-07T13:31:50.791Z,49.59
2018-07-07T13:34:19.414Z,50.19
2018-07-07T13:36:47.935Z,50.38
2018-07-07T13:39:16.481Z,50.54
2018-07-07T13:41:44.991Z,49.82
2018-07-07T13:44:13.939Z,49.11
2018-07-07T13:46:42.527Z,48.99
2018-07-07T13:49:11.108Z,49.88
2018-07-07T13:51:39.760Z,50.13
2018-07-07T13:54:08.247Z,49.22
2018-07-07T13:56:36.807Z,48.61
2018-07-07T13:59:05.438Z,48.19
2018-07-07T14:01:33.962Z,49.50
2018-07-07T14:04:02.604Z,49.50
2018-07-07T14:06:31.290Z,49.30
2018-07-07T14:08:59.933Z,48.79
2018-07-07T14:11:28.544Z,48.81
2018-07-07T14:13:57.040Z,49.08
2018-07-07T14:16:25.553Z,48.35
2018-07-07T14:18:54.103Z,47.61
2018-07-07T14:21:22.734Z,48.48
2018-07-07T14:23:51.372Z,47.69
2018-07-07T14:26:19.903Z,48.64
2018-07-07T14:28:48.420Z,48.81
2018-07-07T14:31:17.005Z,48.25
2018-07-07T14:33:45.539Z,47.67
2018-07-07T14:36:14.135Z,47.81
2018-07-07T14:38:42.811Z,48.37
2018-07-07T14:41:19.755Z,47.93
2018-07-07T14:43:58.378Z,47.96
2018-07-07T14:46:27.458Z,49.13
2018-07-07T14:48:56.103Z,48.82
2018-07-07T14:51:24.733Z,48.92
2018-07-07T14:53:53.528Z,48.46
2018-07-07T14:56:23.089Z,48.99
2018-07-07T14:58:51.953Z,49.16
2018-07-07T15:01:20.547Z,48.96
2018-07-07T15:03:49.792Z,48.67
2018-07-07T15:06:18.809Z,48.82
2018-07-07T15:08:47.336Z,49.16
2018-07-07T15:11:16.235Z,48.73
2018-07-07T15:13:47.297Z,49.02
2018-07-07T15:16:16.289Z,49.42
2018-07-07T15:18:46.028Z,48.47
2018-07-07T15:21:15.348Z,48.94
2018-07-07T15:23:44.584Z,48.85
2018-07-07T15:26:13.243Z,48.81
2018-07-07T15:28:42.227Z,49.04
2018-07-07T15:31:10.799Z,48.17
2018-07-07T15:33:39.751Z,48.64
2018-07-07T15:36:08.384Z,48.29
2018-07-07T15:38:37.167Z,48.81
2018-07-07T15:41:05.806Z,48.67
2018-07-07T15:43:34.813Z,47.96
2018-07-07T15:46:03.499Z,48.64
2018-07-07T15:48:32.851Z,48.75
2018-07-07T15:51:02.644Z,48.60
2018-07-07T15:53:31.177Z,49.33
2018-07-07T15:56:00.257Z,48.18
2018-07-07T15:58:28.958Z,47.44
2018-07-07T16:00:57.507Z,47.47
2018-07-07T16:03:26.173Z,48.28
2018-07-07T16:05:54.763Z,47.68
2018-07-07T16:08:23.290Z,49.10
2018-07-07T16:10:51.975Z,47.49
2018-07-07T16:13:25.064Z,47.93
2018-07-07T16:15:53.649Z,47.95
2018-07-07T16:18:22.283Z,48.33
2018-07-07T16:20:50.779Z,48.11
2018-07-07T16:23:19.908Z,47.96
2018-07-07T16:25:48.418Z,48.28
2018-07-07T16:28:17.073Z,48.29
2018-07-07T16:30:45.656Z,47.95
2018-07-07T16:33:14.184Z,48.06
2018-07-07T16:35:42.823Z,48.65
2018-07-07T16:38:11.356Z,48.84
2018-07-07T16:40:40.025Z,48.32
2018-07-07T16:43:08.986Z,48.29
2018-07-07T16:45:37.730Z,48.73
2018-07-07T16:48:06.407Z,49.21
2018-07-07T16:50:35.099Z,49.69
2018-07-07T16:53:03.799Z,49.42
2018-07-07T16:55:32.452Z,49.25
2018-07-07T16:58:01.251Z,49.76
2018-07-07T17:00:30.077Z,49.21
2018-07-07T17:02:59.448Z,50.13
2018-07-07T17:05:28.186Z,50.62
2018-07-07T17:07:57.139Z,51.43
2018-07-07T17:10:26.056Z,50.82
2018-07-07T17:12:54.653Z,51.06
2018-07-07T17:15:23.274Z,50.66
2018-07-07T17:17:52.225Z,51.66
2018-07-07T17:20:20.853Z,51.76
2018-07-07T17:22:50.289Z,52.36
2018-07-07T17:25:18.859Z,51.94
2018-07-07T17:27:47.902Z,52.33
2018-07-07T17:30:16.723Z,52.45
2018-07-07T17:32:45.349Z,52.21
2018-07-07T17:35:14.441Z,52.62
2018-07-07T17:37:43.194Z,52.85
2018-07-07T17:40:12.393Z,52.77
2018-07-07T17:42:41.521Z,52.82
2018-07-07T17:45:10.376Z,52.73
2018-07-07T17:47:39.063Z,53.21
2018-07-07T17:50:07.891Z,52.89
2018-07-07T17:52:36.988Z,53.15
2018-07-07T17:55:07.413Z,54.24
2018-07-07T17:57:37.126Z,54.41
2018-07-07T18:00:05.911Z,55.13
2018-07-07T18:02:34.698Z,55.10
2018-07-07T18:05:03.507Z,55.28
2018-07-07T18:07:32.171Z,55.52
2018-07-07T18:10:00.803Z,55.10
2018-07-07T18:12:29.436Z,55.17
2018-07-07T18:14:57.963Z,55.48
2018-07-07T18:17:26.516Z,56.25
2018-07-07T18:19:55.086Z,56.12
2018-07-07T18:22:23.655Z,56.09
2018-07-07T18:24:52.455Z,56.56
2018-07-07T18:27:21.032Z,56.17
2018-07-07T18:29:49.617Z,56.02
2018-07-07T18:32:18.310Z,56.94
2018-07-07T18:34:46.989Z,57.04
2018-07-07T18:37:15.881Z,56.82
2018-07-07T18:39:44.634Z,57.61
2018-07-07T18:42:13.249Z,57.57
2018-07-07T18:44:41.832Z,58.14
2018-07-07T18:47:10.486Z,58.37
2018-07-07T18:49:40.129Z,58.15
2018-07-07T18:52:08.707Z,58.12
2018-07-07T18:54:37.331Z,58.52
2018-07-07T18:57:05.874Z,57.98
2018-07-07T18:59:34.503Z,58.84
2018-07-07T19:02:03.307Z,58.61
2018-07-07T19:04:31.856Z,58.86
2018-07-07T19:07:00.399Z,58.74
2018-07-07T19:09:28.931Z,59.83
2018-07-07T19:11:57.574Z,59.56
2018-07-07T19:14:26.427Z,60.08
2018-07-07T19:16:55.847Z,60.16
2018-07-07T19:19:24.820Z,60.52
2018-07-07T19:21:58.475Z,60.65
2018-07-07T19:24:32.247Z,60.91
2018-07-07T19:27:04.383Z,60.36
2018-07-07T19:29:33.172Z,61.10
2018-07-07T19:32:07.476Z,61.54
2018-07-07T19:34:41.447Z,61.52
2018-07-07T19:37:14.802Z,60.89
2018-07-07T19:39:44.107Z,60.98
2018-07-07T19:42:12.671Z,61.77
2018-07-07T19:44:41.183Z,62.04
2018-07-07T19:47:10.138Z,60.61
2018-07-07T19:49:39.725Z,61.78
2018-07-07T19:52:08.756Z,61.67
2018-07-07T19:54:37.459Z,62.86
2018-07-07T19:57:06.060Z,62.06
2018-07-07T19:59:34.955Z,62.72
2018-07-07T20:02:03.636Z,62.25
2018-07-07T20:04:32.199Z,62.98
2018-07-07T20:07:00.805Z,63.06
2018-07-07T20:09:29.488Z,62.67
2018-07-07T20:11:58.172Z,63.06
2018-07-07T20:14:27.489Z,63.31
2018-07-07T20:17:03.915Z,63.04
2018-07-07T20:19:43.787Z,63.83
2018-07-07T20:22:12.558Z,63.95
2018-07-07T20:24:41.262Z,63.63
2018-07-07T20:27:15.171Z,63.77
2018-07-07T20:29:43.768Z,64.16
2018-07-07T20:32:17.557Z,64.42
2018-07-07T20:34:47.258Z,64.60
2018-07-07T20:37:15.777Z,64.74
2018-07-07T20:39:44.524Z,65.42
2018-07-07T20:42:13.218Z,65.59
2018-07-07T20:44:41.764Z,65.70
2018-07-07T20:47:10.382Z,64.28
2018-07-07T20:49:38.958Z,65.75
2018-07-07T20:52:07.568Z,65.48
2018-07-07T20:54:36.260Z,65.71
2018-07-07T20:57:05.129Z,64.83
2018-07-07T20:59:33.715Z,64.94
2018-07-07T21:02:02.461Z,66.02
2018-07-07T21:04:31.079Z,66.70
2018-07-07T21:06:59.631Z,65.93
2018-07-07T21:09:28.245Z,67.04
2018-07-07T21:11:56.895Z,66.72
2018-07-07T21:14:25.479Z,66.37
2018-07-07T21:16:54.198Z,66.14
2018-07-07T21:19:22.784Z,67.52
2018-07-07T21:21:51.470Z,68.06
2018-07-07T21:24:20.048Z,67.20
2018-07-07T21:26:48.611Z,68.55
2018-07-07T21:29:17.212Z,67.92
2018-07-07T21:31:45.798Z,68.78
2018-07-07T21:34:14.483Z,69.02
2018-07-07T21:36:43.128Z,67.28
2018-07-07T21:39:11.756Z,68.49
2018-07-07T21:41:40.380Z,67.08
2018-07-07T21:44:08.908Z,68.58
2018-07-07T21:46:38.218Z,68.12
2018-07-07T21:49:06.788Z,68.23
2018-07-07T21:51:35.358Z,69.97
2018-07-07T21:54:04.036Z,68.90
2018-07-07T21:56:32.650Z,69.53
2018-07-07T21:59:06.393Z,68.96
2018-07-07T22:02:03.326Z,69.79
2018-07-07T22:04:37.098Z,69.50
2018-07-07T22:07:12.338Z,70.34
2018-07-07T22:09:41.340Z,68.41
2018-07-07T22:12:09.967Z,71.48
2018-07-07T22:14:38.727Z,71.61
2018-07-07T22:17:07.396Z,72.86
2018-07-07T22:19:35.915Z,72.59
2018-07-07T22:22:06.499Z,72.15
2018-07-07T22:24:35.300Z,72.99
2018-07-07T22:27:07.029Z,70.81
2018-07-07T22:29:35.737Z,71.80
2018-07-07T22:32:05.945Z,71.15
2018-07-07T22:34:38.742Z,73.13
2018-07-07T22:37:07.729Z,72.87
2018-07-07T22:39:39.698Z,71.57
2018-07-07T22:42:09.723Z,73.11
2018-07-07T22:44:39.110Z,73.45
2018-07-07T22:47:07.693Z,74.03
2018-07-07T22:49:36.276Z,73.16
2018-07-07T22:52:06.639Z,72.21
2018-07-07T22:54:35.391Z,73.44
2018-07-07T22:57:04.073Z,73.55
2018-07-07T22:59:32.596Z,71.86
2018-07-07T23:02:01.239Z,72.97
2018-07-07T23:04:29.924Z,72.91
2018-07-07T23:06:58.509Z,74.08
2018-07-07T23:09:27.093Z,73.44
2018-07-07T23:11:55.622Z,74.17
2018-07-07T23:14:24.199Z,74.66
2018-07-07T23:16:52.835Z,75.62
2018-07-07T23:19:21.473Z,75.90
2018-07-07T23:21:49.989Z,74.64
2018-07-07T23:24:18.519Z,74.21
2018-07-07T23:26:47.015Z,75.16
2018-07-07T23:29:15.548Z,76.53
2018-07-07T23:31:44.071Z,76.82
2018-07-07T23:34:12.659Z,76.20
2018-07-07T23:36:41.189Z,77.01
2018-07-07T23:39:09.778Z,76.62
2018-07-07T23:41:38.474Z,77.08
2018-07-07T23:44:07.091Z,75.80
2018-07-07T23:46:35.671Z,76.46
2018-07-07T23:49:04.317Z,77.06
2018-07-07T23:51:32.872Z,77.39
2018-07-07T23:54:01.423Z,76.78
2018-07-07T23:56:30.006Z,77.13
2018-07-07T23:58:58.603Z,77.32
